»·PEaware :: N265K KTRM-KSNA

N265K :: KTRM-KSNA

FLIGHT INFORMATION

Flight Status: Arrived
Operator: Privately registered:
United States
More flights under this callsign
Pilot: Tytus A. (10113)
Aircraft: CESSNA 210 CENTURION
(C210)
More flights by this aircraft type
Origin: KTRM Desert Resorts Regl
United States
Destination: KSNA John Wayne-Orange Co
United States
More flights between these airports :: More routes between these airports
Route: +PSP V388 ACINS V283 SLI
File this flight plan on PilotEdge
Remarks: +CW /
Altitude:
(Current/Filed)
13,000ft
Speed:
(Current/Filed)
160kts
Departed: 15-Apr-20 08:55 PM
Arrived: 15-Apr-20 09:45 PM
Distance/Time
Traveled:
85nm/0:50
Distance/Time
To Go:
Arrived

Flight Plot

Page will automatically refresh every two minutes.

Flight plan parsing failed; only flown route is shown


Map Options




Map Legend


Flown Route
Filed Route
Departure Airport
Arrival Airport
Navaid (VOR, NDB)
Fix

Horizontal Profiles

Position Reports

Time Latitude Longitude Heading Altitude Ground
Speed
15-Apr-20 20:30 33.635097 -116.162064 89 -110ft 0kts
15-Apr-20 20:31 33.635097 -116.162063 89 -110ft 0kts
15-Apr-20 20:32 33.635097 -116.162062 89 -110ft 0kts
15-Apr-20 20:33 33.635097 -116.162061 89 -110ft 0kts
15-Apr-20 20:34 33.635097 -116.162060 90 -110ft 0kts
15-Apr-20 20:35 33.635097 -116.162060 90 -110ft 0kts
15-Apr-20 20:36 33.635097 -116.162059 90 -110ft 0kts
15-Apr-20 20:37 33.635097 -116.162058 90 -110ft 0kts
15-Apr-20 20:38 33.635097 -116.162057 90 -110ft 0kts
15-Apr-20 20:39 33.635097 -116.162056 90 -110ft 0kts
15-Apr-20 20:39 33.635097 -116.162055 90 -110ft 0kts
15-Apr-20 20:41 33.635097 -116.162054 90 -110ft 0kts
15-Apr-20 20:42 33.635096 -116.162053 91 -110ft 0kts
15-Apr-20 20:42 33.635096 -116.162053 91 -110ft 0kts
15-Apr-20 20:44 33.635096 -116.162052 91 -110ft 0kts
15-Apr-20 20:44 33.635096 -116.162051 91 -110ft 0kts
15-Apr-20 20:45 33.635096 -116.162050 91 -110ft 0kts
15-Apr-20 20:47 33.635096 -116.162049 91 -110ft 0kts
15-Apr-20 20:47 33.635096 -116.162048 91 -110ft 0kts
15-Apr-20 20:48 33.635096 -116.162048 91 -110ft 0kts
15-Apr-20 20:49 33.635096 -116.162047 91 -110ft 0kts
15-Apr-20 20:50 33.634686 -116.159959 91 -110ft 13kts
15-Apr-20 20:51 33.636772 -116.158433 356 -110ft 26kts
15-Apr-20 20:52 33.639164 -116.157978 109 -110ft 0kts
15-Apr-20 20:53 33.639164 -116.157977 109 -110ft 0kts
15-Apr-20 20:54 33.635908 -116.156433 181 -109ft 59kts
15-Apr-20 20:55 33.607119 -116.152254 172 435ft 144kts
15-Apr-20 20:56 33.574247 -116.138196 130 2018ft 121kts
15-Apr-20 20:57 33.578688 -116.097762 46 3295ft 133kts
15-Apr-20 20:58 33.604418 -116.102145 301 4382ft 108kts
15-Apr-20 20:59 33.621297 -116.135170 297 5113ft 127kts
15-Apr-20 21:00 33.646555 -116.168683 311 5725ft 136kts
15-Apr-20 21:01 33.673341 -116.199858 309 6482ft 131kts
15-Apr-20 21:02 33.700172 -116.231455 311 7118ft 140kts
15-Apr-20 21:03 33.727856 -116.264328 311 7753ft 139kts
15-Apr-20 21:04 33.755863 -116.298112 311 8232ft 144kts
15-Apr-20 21:05 33.783418 -116.331750 311 8908ft 138kts
15-Apr-20 21:06 33.812344 -116.361930 317 9603ft 137kts
15-Apr-20 21:07 33.841153 -116.393228 310 10064ft 149kts
15-Apr-20 21:08 33.869892 -116.432417 293 10053ft 156kts
15-Apr-20 21:09 33.883128 -116.482059 287 10053ft 155kts
15-Apr-20 21:10 33.895703 -116.531736 286 10054ft 155kts
15-Apr-20 21:11 33.908119 -116.581362 286 10054ft 154kts
15-Apr-20 21:12 33.920508 -116.630980 286 10054ft 154kts
15-Apr-20 21:13 33.932895 -116.680598 286 10055ft 155kts
15-Apr-20 21:14 33.945267 -116.730329 286 10053ft 155kts
15-Apr-20 21:15 33.945094 -116.781874 266 10054ft 155kts
15-Apr-20 21:16 33.944792 -116.833892 270 10053ft 155kts
15-Apr-20 21:17 33.943445 -116.885979 269 10055ft 155kts
15-Apr-20 21:18 33.941471 -116.937987 268 10052ft 156kts
15-Apr-20 21:19 33.939470 -116.990117 269 10057ft 156kts
15-Apr-20 21:20 33.937442 -117.042453 269 10053ft 156kts
15-Apr-20 21:21 33.935402 -117.094575 269 10055ft 156kts
15-Apr-20 21:22 33.931147 -117.146265 240 10055ft 160kts
15-Apr-20 21:23 33.898859 -117.184243 227 10055ft 163kts
15-Apr-20 21:24 33.868926 -117.228765 239 9504ft 176kts
15-Apr-20 21:25 33.841777 -117.278535 239 8886ft 177kts
15-Apr-20 21:26 33.818210 -117.330219 244 8268ft 176kts
15-Apr-20 21:27 33.796021 -117.380108 244 8049ft 160kts
15-Apr-20 21:28 33.783858 -117.429018 263 8056ft 153kts
15-Apr-20 21:29 33.779326 -117.479871 280 8013ft 155kts
15-Apr-20 21:30 33.795243 -117.529621 291 7375ft 162kts
15-Apr-20 21:31 33.812627 -117.580066 291 6682ft 162kts
15-Apr-20 21:32 33.829662 -117.629550 291 6085ft 157kts
15-Apr-20 21:33 33.846289 -117.677921 291 5527ft 156kts
15-Apr-20 21:34 33.862694 -117.725445 290 4942ft 140kts
15-Apr-20 21:35 33.859055 -117.755096 210 4291ft 92kts
15-Apr-20 21:36 33.836733 -117.767294 210 3691ft 85kts
15-Apr-20 21:37 33.814785 -117.778628 210 3076ft 90kts
15-Apr-20 21:38 33.793014 -117.793336 219 2512ft 81kts
15-Apr-20 21:39 33.772591 -117.806887 210 1904ft 84kts
15-Apr-20 21:40 33.752452 -117.820110 216 1576ft 81kts
15-Apr-20 21:41 33.730730 -117.833254 212 1111ft 91kts
15-Apr-20 21:42 33.708428 -117.848114 210 677ft 90kts
15-Apr-20 21:43 33.687179 -117.861397 208 343ft 73kts
15-Apr-20 21:44 33.677772 -117.866513 113 59ft 0kts

Navigation Log

Ident Type
Flight plan parsing failed, navigation log unavailable